首页
METAR-TAF:

METAR-TAF

机场 :

Topcliffe, 英格兰

纬度: 54-12N, 经度: 001-23W, 海拔: 28米

当前天气观测

该预报发布于43分钟前的00:50 UTC
风速4节,风向东南
温度 3°C
湿度 100%
气压 1004 hPa
能見度: 0150

METAR: EGXZ 170050Z AUTO 14004KT 0150 FG NCD 03/03 Q1004

时间: 02:33 (01:33 UTC)


TAF: 丢失

超过4000个机场的气象观测和天气预报(METAR&TAF报告)。

可查询的气象台以黄色和红色小点在地图上表示。

将鼠标移到小点上方,可查看气象台名称。

然后点击查看天气观测和预报。

如需切换地图:点击带黑十字的绿色按钮放大地图;点击带横线的绿色按钮缩小地图;或者点击绿色箭头查看邻近地区的地图。


METAR-TAF: